sensor_id;sensor_type;location;lat;lon;timestamp;pressure;altitude;pressure_sealevel;temperature;humidity
70009;BME280;59542;37.950;-122.338;2023-02-28T00:00:48;101079.88;;;10.49;56.29
70009;BME280;59542;37.950;-122.338;2023-02-28T00:03:14;101102.88;;;10.30;57.77
70009;BME280;59542;37.950;-122.338;2023-02-28T00:05:40;101094.91;;;10.15;58.48
70009;BME280;59542;37.950;-122.338;2023-02-28T00:08:07;101093.28;;;10.14;58.07
70009;BME280;59542;37.950;-122.338;2023-02-28T00:10:33;101091.16;;;10.03;56.89
70009;BME280;59542;37.950;-122.338;2023-02-28T00:13:00;101090.31;;;10.02;55.81
70009;BME280;59542;37.950;-122.338;2023-02-28T00:15:26;101100.81;;;10.04;56.91
70009;BME280;59542;37.950;-122.338;2023-02-28T00:17:52;101098.38;;;10.09;55.55
70009;BME280;59542;37.950;-122.338;2023-02-28T00:20:18;101094.84;;;10.02;55.57
70009;BME280;59542;37.950;-122.338;2023-02-28T00:22:45;101099.84;;;10.12;54.47
70009;BME280;59542;37.950;-122.338;2023-02-28T00:25:13;101102.78;;;10.17;54.25
70009;BME280;59542;37.950;-122.338;2023-02-28T00:27:40;101107.66;;;10.07;52.48
70009;BME280;59542;37.950;-122.338;2023-02-28T00:30:07;101103.91;;;10.01;48.51
70009;BME280;59542;37.950;-122.338;2023-02-28T00:32:33;101110.81;;;9.89;50.92
70009;BME280;59542;37.950;-122.338;2023-02-28T00:35:00;101121.09;;;9.92;50.96
70009;BME280;59542;37.950;-122.338;2023-02-28T00:37:25;101124.03;;;9.97;48.90
70009;BME280;59542;37.950;-122.338;2023-02-28T00:39:51;101144.56;;;9.90;49.29
70009;BME280;59542;37.950;-122.338;2023-02-28T00:42:17;101148.38;;;9.81;49.94
70009;BME280;59542;37.950;-122.338;2023-02-28T00:44:43;101142.53;;;9.70;50.88
70009;BME280;59542;37.950;-122.338;2023-02-28T00:47:09;101152.44;;;9.76;51.77
70009;BME280;59542;37.950;-122.338;2023-02-28T00:49:35;101159.28;;;9.79;50.70
70009;BME280;59542;37.950;-122.338;2023-02-28T00:52:01;101164.44;;;9.59;50.99
70009;BME280;59542;37.950;-122.338;2023-02-28T00:54:27;101169.34;;;9.56;51.92
70009;BME280;59542;37.950;-122.338;2023-02-28T00:56:53;101167.25;;;9.51;51.18
70009;BME280;59542;37.950;-122.338;2023-02-28T00:59:19;101166.25;;;9.37;53.00
70009;BME280;59542;37.950;-122.338;2023-02-28T01:01:45;101168.38;;;9.42;54.28
70009;BME280;59542;37.950;-122.338;2023-02-28T01:04:11;101176.25;;;9.29;54.46
70009;BME280;59542;37.950;-122.338;2023-02-28T01:06:37;101168.00;;;9.45;56.85
70009;BME280;59542;37.950;-122.338;2023-02-28T01:09:04;101175.13;;;9.59;55.22
70009;BME280;59542;37.950;-122.338;2023-02-28T01:11:30;101178.00;;;9.58;54.33
70009;BME280;59542;37.950;-122.338;2023-02-28T01:13:56;101175.94;;;9.38;56.48
70009;BME280;59542;37.950;-122.338;2023-02-28T01:16:22;101173.47;;;9.58;57.44
70009;BME280;59542;37.950;-122.338;2023-02-28T01:18:48;101177.16;;;9.57;56.65
70009;BME280;59542;37.950;-122.338;2023-02-28T01:21:15;101176.41;;;9.63;55.64
70009;BME280;59542;37.950;-122.338;2023-02-28T01:23:41;101177.38;;;9.56;56.76
70009;BME280;59542;37.950;-122.338;2023-02-28T01:26:08;101176.78;;;9.39;56.09
70009;BME280;59542;37.950;-122.338;2023-02-28T01:28:34;101186.88;;;9.43;56.87
70009;BME280;59542;37.950;-122.338;2023-02-28T01:31:01;101192.47;;;9.27;58.21
70009;BME280;59542;37.950;-122.338;2023-02-28T01:33:26;101201.22;;;9.21;58.59
70009;BME280;59542;37.950;-122.338;2023-02-28T01:36:00;101197.06;;;9.33;58.54
70009;BME280;59542;37.950;-122.338;2023-02-28T01:38:26;101188.69;;;9.21;57.77
70009;BME280;59542;37.950;-122.338;2023-02-28T01:40:52;101188.94;;;9.05;58.32
70009;BME280;59542;37.950;-122.338;2023-02-28T01:43:26;101185.13;;;9.14;59.05
70009;BME280;59542;37.950;-122.338;2023-02-28T01:45:53;101186.97;;;9.14;59.02
70009;BME280;59542;37.950;-122.338;2023-02-28T01:48:19;101202.03;;;9.00;60.26
70009;BME280;59542;37.950;-122.338;2023-02-28T01:50:46;101215.75;;;8.82;60.53
70009;BME280;59542;37.950;-122.338;2023-02-28T01:53:15;101219.25;;;8.68;61.28
70009;BME280;59542;37.950;-122.338;2023-02-28T01:55:45;101235.78;;;8.49;63.25
70009;BME280;59542;37.950;-122.338;2023-02-28T01:58:11;101219.25;;;8.38;64.88
70009;BME280;59542;37.950;-122.338;2023-02-28T02:00:38;101219.00;;;7.87;67.94
70009;BME280;59542;37.950;-122.338;2023-02-28T02:03:10;101220.38;;;7.83;68.72
70009;BME280;59542;37.950;-122.338;2023-02-28T02:05:37;101228.66;;;7.65;70.27
70009;BME280;59542;37.950;-122.338;2023-02-28T02:08:05;101229.03;;;7.62;69.90
70009;BME280;59542;37.950;-122.338;2023-02-28T02:10:41;101224.22;;;7.58;69.63
70009;BME280;59542;37.950;-122.338;2023-02-28T02:15:52;101227.38;;;7.61;70.49
70009;BME280;59542;37.950;-122.338;2023-02-28T02:18:32;101223.88;;;7.61;70.12
70009;BME280;59542;37.950;-122.338;2023-02-28T02:26:16;101234.13;;;7.72;70.37
70009;BME280;59542;37.950;-122.338;2023-02-28T02:36:50;101245.91;;;8.15;70.46
70009;BME280;59542;37.950;-122.338;2023-02-28T02:39:19;101249.78;;;8.13;70.70
70009;BME280;59542;37.950;-122.338;2023-02-28T02:41:54;101245.63;;;8.10;69.49
70009;BME280;59542;37.950;-122.338;2023-02-28T02:44:24;101250.19;;;8.25;69.14
70009;BME280;59542;37.950;-122.338;2023-02-28T02:46:59;101249.31;;;8.09;69.33
70009;BME280;59542;37.950;-122.338;2023-02-28T02:49:30;101258.59;;;8.13;69.58
70009;BME280;59542;37.950;-122.338;2023-02-28T02:51:57;101253.91;;;8.15;70.27
70009;BME280;59542;37.950;-122.338;2023-02-28T02:54:30;101261.81;;;7.86;72.13
70009;BME280;59542;37.950;-122.338;2023-02-28T02:56:58;101272.97;;;8.12;71.04
70009;BME280;59542;37.950;-122.338;2023-02-28T02:59:24;101279.44;;;7.95;71.80
70009;BME280;59542;37.950;-122.338;2023-02-28T03:01:54;101273.69;;;7.83;71.76
70009;BME280;59542;37.950;-122.338;2023-02-28T03:04:23;101272.38;;;8.02;71.22
70009;BME280;59542;37.950;-122.338;2023-02-28T03:06:50;101273.56;;;8.00;71.07
70009;BME280;59542;37.950;-122.338;2023-02-28T03:09:23;101278.53;;;7.80;72.00
70009;BME280;59542;37.950;-122.338;2023-02-28T03:11:50;101266.66;;;7.82;72.19
70009;BME280;59542;37.950;-122.338;2023-02-28T03:22:24;101288.28;;;7.87;73.66
70009;BME280;59542;37.950;-122.338;2023-02-28T03:27:42;101305.38;;;8.01;73.49
70009;BME280;59542;37.950;-122.338;2023-02-28T03:30:15;101289.81;;;7.82;74.53
70009;BME280;59542;37.950;-122.338;2023-02-28T03:35:22;101307.44;;;7.91;71.08
70009;BME280;59542;37.950;-122.338;2023-02-28T03:37:50;101301.31;;;7.82;68.86
70009;BME280;59542;37.950;-122.338;2023-02-28T03:40:19;101306.81;;;7.81;69.88
70009;BME280;59542;37.950;-122.338;2023-02-28T03:42:47;101310.50;;;7.80;68.67
70009;BME280;59542;37.950;-122.338;2023-02-28T03:45:15;101306.94;;;7.64;68.05
70009;BME280;59542;37.950;-122.338;2023-02-28T03:47:52;101316.00;;;7.47;68.70
70009;BME280;59542;37.950;-122.338;2023-02-28T03:50:26;101320.00;;;7.43;68.15
70009;BME280;59542;37.950;-122.338;2023-02-28T03:53:01;101316.19;;;7.46;67.70
70009;BME280;59542;37.950;-122.338;2023-02-28T03:55:31;101319.41;;;7.33;67.70
70009;BME280;59542;37.950;-122.338;2023-02-28T03:58:00;101316.06;;;7.39;68.68
70009;BME280;59542;37.950;-122.338;2023-02-28T04:00:34;101316.97;;;7.15;69.59
70009;BME280;59542;37.950;-122.338;2023-02-28T04:03:01;101310.84;;;7.06;70.01
70009;BME280;59542;37.950;-122.338;2023-02-28T04:05:27;101311.50;;;7.17;70.06
70009;BME280;59542;37.950;-122.338;2023-02-28T04:07:54;101311.00;;;7.13;70.63
70009;BME280;59542;37.950;-122.338;2023-02-28T04:10:28;101313.94;;;7.26;70.24
70009;BME280;59542;37.950;-122.338;2023-02-28T04:12:54;101310.81;;;7.14;70.14
70009;BME280;59542;37.950;-122.338;2023-02-28T04:15:20;101315.19;;;7.07;70.51
70009;BME280;59542;37.950;-122.338;2023-02-28T04:17:48;101313.47;;;7.23;70.59
70009;BME280;59542;37.950;-122.338;2023-02-28T04:20:13;101322.28;;;7.15;70.99
70009;BME280;59542;37.950;-122.338;2023-02-28T04:22:39;101315.34;;;7.06;71.14
70009;BME280;59542;37.950;-122.338;2023-02-28T04:25:05;101319.50;;;7.08;71.36
70009;BME280;59542;37.950;-122.338;2023-02-28T04:27:31;101321.50;;;7.06;71.18
70009;BME280;59542;37.950;-122.338;2023-02-28T04:29:57;101319.31;;;7.10;71.21
70009;BME280;59542;37.950;-122.338;2023-02-28T04:32:23;101310.81;;;7.14;70.75
70009;BME280;59542;37.950;-122.338;2023-02-28T04:34:49;101317.19;;;7.05;70.46
70009;BME280;59542;37.950;-122.338;2023-02-28T04:37:15;101322.50;;;7.05;70.90
70009;BME280;59542;37.950;-122.338;2023-02-28T04:39:41;101325.13;;;7.13;70.91
70009;BME280;59542;37.950;-122.338;2023-02-28T04:42:06;101319.31;;;7.10;70.80
70009;BME280;59542;37.950;-122.338;2023-02-28T04:44:32;101326.34;;;7.03;70.79
70009;BME280;59542;37.950;-122.338;2023-02-28T04:46:58;101324.84;;;7.00;70.73
70009;BME280;59542;37.950;-122.338;2023-02-28T04:49:24;101321.50;;;6.98;70.79
70009;BME280;59542;37.950;-122.338;2023-02-28T04:51:50;101327.38;;;6.85;70.93
70009;BME280;59542;37.950;-122.338;2023-02-28T04:54:16;101327.06;;;6.80;71.08
70009;BME280;59542;37.950;-122.338;2023-02-28T04:56:43;101327.22;;;6.79;71.30
70009;BME280;59542;37.950;-122.338;2023-02-28T04:59:09;101331.72;;;6.70;71.55
70009;BME280;59542;37.950;-122.338;2023-02-28T05:01:34;101332.72;;;6.69;71.60
70009;BME280;59542;37.950;-122.338;2023-02-28T05:04:02;101335.41;;;6.61;72.08
70009;BME280;59542;37.950;-122.338;2023-02-28T05:06:29;101333.41;;;6.63;72.30
70009;BME280;59542;37.950;-122.338;2023-02-28T05:08:56;101340.19;;;6.66;72.39
70009;BME280;59542;37.950;-122.338;2023-02-28T05:11:23;101348.84;;;6.59;72.72
70009;BME280;59542;37.950;-122.338;2023-02-28T05:13:50;101359.16;;;6.63;72.82
70009;BME280;59542;37.950;-122.338;2023-02-28T05:16:16;101353.69;;;6.56;73.55
70009;BME280;59542;37.950;-122.338;2023-02-28T05:18:42;101363.81;;;6.69;73.50
70009;BME280;59542;37.950;-122.338;2023-02-28T05:21:22;101356.00;;;6.75;74.10
70009;BME280;59542;37.950;-122.338;2023-02-28T05:23:52;101359.66;;;6.74;74.53
70009;BME280;59542;37.950;-122.338;2023-02-28T05:26:19;101361.31;;;6.83;74.52
70009;BME280;59542;37.950;-122.338;2023-02-28T05:28:45;101366.78;;;6.90;74.40
70009;BME280;59542;37.950;-122.338;2023-02-28T05:31:11;101371.03;;;7.15;74.17
70009;BME280;59542;37.950;-122.338;2023-02-28T05:33:37;101377.06;;;6.93;74.94
70009;BME280;59542;37.950;-122.338;2023-02-28T05:36:03;101370.94;;;6.93;75.50
70009;BME280;59542;37.950;-122.338;2023-02-28T05:38:29;101369.25;;;7.08;75.66
70009;BME280;59542;37.950;-122.338;2023-02-28T05:40:55;101371.03;;;7.15;75.58
70009;BME280;59542;37.950;-122.338;2023-02-28T05:43:21;101379.72;;;7.09;75.90
70009;BME280;59542;37.950;-122.338;2023-02-28T05:45:47;101396.47;;;7.26;75.82
70009;BME280;59542;37.950;-122.338;2023-02-28T05:48:13;101408.28;;;7.32;74.92
70009;BME280;59542;37.950;-122.338;2023-02-28T05:50:39;101408.53;;;6.90;74.44
70009;BME280;59542;37.950;-122.338;2023-02-28T05:53:06;101408.53;;;6.81;75.16
70009;BME280;59542;37.950;-122.338;2023-02-28T05:55:31;101404.88;;;6.82;74.15
70009;BME280;59542;37.950;-122.338;2023-02-28T05:57:57;101411.88;;;6.67;76.05
70009;BME280;59542;37.950;-122.338;2023-02-28T06:00:24;101423.00;;;6.71;76.81
70009;BME280;59542;37.950;-122.338;2023-02-28T06:02:50;101414.03;;;6.64;77.71
70009;BME280;59542;37.950;-122.338;2023-02-28T06:05:18;101402.06;;;6.68;77.58
70009;BME280;59542;37.950;-122.338;2023-02-28T06:07:44;101402.91;;;6.68;77.51
70009;BME280;59542;37.950;-122.338;2023-02-28T06:10:10;101396.06;;;6.66;78.18
70009;BME280;59542;37.950;-122.338;2023-02-28T06:12:37;101402.72;;;6.86;78.25
70009;BME280;59542;37.950;-122.338;2023-02-28T06:15:03;101390.06;;;6.72;79.43
70009;BME280;59542;37.950;-122.338;2023-02-28T06:17:29;101396.59;;;6.61;80.42
70009;BME280;59542;37.950;-122.338;2023-02-28T06:19:55;101400.88;;;6.70;79.79
70009;BME280;59542;37.950;-122.338;2023-02-28T06:22:20;101395.06;;;6.75;79.53
70009;BME280;59542;37.950;-122.338;2023-02-28T06:24:46;101397.06;;;6.81;79.48
70009;BME280;59542;37.950;-122.338;2023-02-28T06:27:12;101405.81;;;7.14;78.90
70009;BME280;59542;37.950;-122.338;2023-02-28T06:29:38;101408.19;;;7.01;78.86
70009;BME280;59542;37.950;-122.338;2023-02-28T06:32:07;101409.13;;;7.16;78.36
70009;BME280;59542;37.950;-122.338;2023-02-28T06:34:33;101420.81;;;6.99;78.33
70009;BME280;59542;37.950;-122.338;2023-02-28T06:36:59;101417.81;;;6.94;78.14
70009;BME280;59542;37.950;-122.338;2023-02-28T06:39:29;101416.66;;;7.04;77.40
70009;BME280;59542;37.950;-122.338;2023-02-28T06:41:55;101415.00;;;7.03;77.45
70009;BME280;59542;37.950;-122.338;2023-02-28T06:44:21;101421.50;;;6.93;76.98
70009;BME280;59542;37.950;-122.338;2023-02-28T06:46:47;101422.84;;;6.72;77.61
70009;BME280;59542;37.950;-122.338;2023-02-28T06:49:13;101422.47;;;6.43;78.71
70009;BME280;59542;37.950;-122.338;2023-02-28T06:51:40;101416.69;;;6.55;78.99
70009;BME280;59542;37.950;-122.338;2023-02-28T06:54:07;101422.03;;;6.55;78.41
70009;BME280;59542;37.950;-122.338;2023-02-28T06:56:36;101427.97;;;6.49;79.20
70009;BME280;59542;37.950;-122.338;2023-02-28T06:59:02;101432.00;;;6.61;78.92
70009;BME280;59542;37.950;-122.338;2023-02-28T07:01:28;101429.66;;;6.58;78.69
70009;BME280;59542;37.950;-122.338;2023-02-28T07:03:54;101431.66;;;6.65;78.81
70009;BME280;59542;37.950;-122.338;2023-02-28T07:06:21;101435.47;;;6.70;78.81
70009;BME280;59542;37.950;-122.338;2023-02-28T07:08:48;101428.16;;;6.80;78.64
70009;BME280;59542;37.950;-122.338;2023-02-28T07:11:14;101426.34;;;6.89;78.94
70009;BME280;59542;37.950;-122.338;2023-02-28T07:13:39;101430.63;;;6.98;78.57
70009;BME280;59542;37.950;-122.338;2023-02-28T07:16:06;101432.00;;;6.78;78.94
70009;BME280;59542;37.950;-122.338;2023-02-28T07:18:34;101433.50;;;6.88;78.67
70009;BME280;59542;37.950;-122.338;2023-02-28T07:21:03;101421.34;;;6.78;78.53
70009;BME280;59542;37.950;-122.338;2023-02-28T07:23:29;101424.19;;;6.68;78.43
70009;BME280;59542;37.950;-122.338;2023-02-28T07:25:55;101427.63;;;6.36;79.83
70009;BME280;59542;37.950;-122.338;2023-02-28T07:28:21;101430.63;;;6.41;79.87
70009;BME280;59542;37.950;-122.338;2023-02-28T07:30:47;101428.25;;;6.22;80.13
70009;BME280;59542;37.950;-122.338;2023-02-28T07:33:13;101431.28;;;6.35;79.73
70009;BME280;59542;37.950;-122.338;2023-02-28T07:35:39;101427.28;;;6.31;80.09
70009;BME280;59542;37.950;-122.338;2023-02-28T07:38:05;101426.97;;;6.42;79.62
70009;BME280;59542;37.950;-122.338;2023-02-28T07:40:33;101429.13;;;6.22;79.66
70009;BME280;59542;37.950;-122.338;2023-02-28T07:42:59;101432.75;;;6.13;79.80
70009;BME280;59542;37.950;-122.338;2023-02-28T07:45:26;101424.28;;;6.18;79.71
70009;BME280;59542;37.950;-122.338;2023-02-28T07:47:51;101435.91;;;6.17;79.98
70009;BME280;59542;37.950;-122.338;2023-02-28T07:50:17;101442.84;;;6.09;79.97
70009;BME280;59542;37.950;-122.338;2023-02-28T07:52:43;101443.84;;;6.08;79.75
70009;BME280;59542;37.950;-122.338;2023-02-28T07:55:09;101437.91;;;6.23;79.13
70009;BME280;59542;37.950;-122.338;2023-02-28T07:57:35;101444.84;;;6.07;79.83
70009;BME280;59542;37.950;-122.338;2023-02-28T08:00:03;101440.16;;;5.93;79.89
70009;BME280;59542;37.950;-122.338;2023-02-28T08:02:29;101437.44;;;5.85;81.17
70009;BME280;59542;37.950;-122.338;2023-02-28T08:04:55;101444.03;;;5.73;81.25
70009;BME280;59542;37.950;-122.338;2023-02-28T08:07:21;101442.09;;;5.83;80.99
70009;BME280;59542;37.950;-122.338;2023-02-28T08:09:47;101438.66;;;5.99;80.55
70009;BME280;59542;37.950;-122.338;2023-02-28T08:12:13;101434.88;;;6.09;79.95
70009;BME280;59542;37.950;-122.338;2023-02-28T08:14:40;101440.19;;;6.09;79.58
70009;BME280;59542;37.950;-122.338;2023-02-28T08:17:06;101432.09;;;6.11;79.33
70009;BME280;59542;37.950;-122.338;2023-02-28T08:19:32;101436.06;;;6.15;78.84
70009;BME280;59542;37.950;-122.338;2023-02-28T08:21:58;101436.72;;;6.09;79.13
70009;BME280;59542;37.950;-122.338;2023-02-28T08:24:23;101436.53;;;6.11;78.79
70009;BME280;59542;37.950;-122.338;2023-02-28T08:26:49;101442.38;;;6.06;78.56
70009;BME280;59542;37.950;-122.338;2023-02-28T08:29:15;101443.75;;;5.84;79.23
70009;BME280;59542;37.950;-122.338;2023-02-28T08:31:41;101444.81;;;5.91;79.07
70009;BME280;59542;37.950;-122.338;2023-02-28T08:34:11;101449.41;;;5.89;78.66
70009;BME280;59542;37.950;-122.338;2023-02-28T08:36:37;101444.25;;;5.88;79.30
70009;BME280;59542;37.950;-122.338;2023-02-28T08:39:04;101453.22;;;5.87;79.00
70009;BME280;59542;37.950;-122.338;2023-02-28T08:41:30;101439.22;;;5.76;79.53
70009;BME280;59542;37.950;-122.338;2023-02-28T08:43:56;101448.66;;;5.71;79.31
70009;BME280;59542;37.950;-122.338;2023-02-28T08:46:22;101442.03;;;5.75;79.35
70009;BME280;59542;37.950;-122.338;2023-02-28T08:48:50;101440.56;;;5.72;79.20
70009;BME280;59542;37.950;-122.338;2023-02-28T08:51:17;101443.50;;;5.61;79.53
70009;BME280;59542;37.950;-122.338;2023-02-28T08:54:00;101436.84;;;5.65;79.45
70009;BME280;59542;37.950;-122.338;2023-02-28T08:56:26;101449.00;;;5.68;79.74
70009;BME280;59542;37.950;-122.338;2023-02-28T08:58:53;101450.94;;;5.57;79.38
70009;BME280;59542;37.950;-122.338;2023-02-28T09:01:21;101438.47;;;5.58;79.23
70009;BME280;59542;37.950;-122.338;2023-02-28T09:03:48;101445.44;;;5.51;79.28
70009;BME280;59542;37.950;-122.338;2023-02-28T09:06:15;101440.03;;;5.69;79.07
70009;BME280;59542;37.950;-122.338;2023-02-28T09:08:41;101437.19;;;5.70;78.74
70009;BME280;59542;37.950;-122.338;2023-02-28T09:11:07;101432.25;;;5.75;78.94
70009;BME280;59542;37.950;-122.338;2023-02-28T09:13:33;101431.53;;;5.65;79.11
70009;BME280;59542;37.950;-122.338;2023-02-28T09:16:00;101434.63;;;5.52;79.60
70009;BME280;59542;37.950;-122.338;2023-02-28T09:18:26;101427.59;;;5.35;80.61
70009;BME280;59542;37.950;-122.338;2023-02-28T09:20:52;101423.34;;;5.50;80.71
70009;BME280;59542;37.950;-122.338;2023-02-28T09:23:18;101420.63;;;5.42;81.20
70009;BME280;59542;37.950;-122.338;2023-02-28T09:25:45;101419.91;;;5.66;80.62
70009;BME280;59542;37.950;-122.338;2023-02-28T09:28:11;101415.22;;;5.52;81.46
70009;BME280;59542;37.950;-122.338;2023-02-28T09:30:37;101412.63;;;5.68;81.17
70009;BME280;59542;37.950;-122.338;2023-02-28T09:33:03;101411.09;;;5.57;81.71
70009;BME280;59542;37.950;-122.338;2023-02-28T09:35:29;101412.31;;;5.37;82.53
70009;BME280;59542;37.950;-122.338;2023-02-28T09:37:56;101400.22;;;5.35;82.94
70009;BME280;59542;37.950;-122.338;2023-02-28T09:40:23;101404.72;;;5.42;82.71
70009;BME280;59542;37.950;-122.338;2023-02-28T09:42:51;101400.78;;;5.54;83.53
70009;BME280;59542;37.950;-122.338;2023-02-28T09:45:22;101401.94;;;5.52;83.78
70009;BME280;59542;37.950;-122.338;2023-02-28T09:47:49;101404.59;;;5.52;83.98
70009;BME280;59542;37.950;-122.338;2023-02-28T09:50:28;101400.03;;;5.70;83.79
70009;BME280;59542;37.950;-122.338;2023-02-28T09:52:55;101400.19;;;5.77;83.34
70009;BME280;59542;37.950;-122.338;2023-02-28T09:55:25;101392.88;;;5.71;83.26
70009;BME280;59542;37.950;-122.338;2023-02-28T09:57:53;101391.56;;;5.67;84.53
70009;BME280;59542;37.950;-122.338;2023-02-28T10:00:27;101397.06;;;5.81;83.78
70009;BME280;59542;37.950;-122.338;2023-02-28T10:05:29;101384.22;;;6.03;83.65
70009;BME280;59542;37.950;-122.338;2023-02-28T10:10:32;101384.56;;;6.00;83.50
70009;BME280;59542;37.950;-122.338;2023-02-28T10:13:01;101378.72;;;6.04;84.01
70009;BME280;59542;37.950;-122.338;2023-02-28T10:15:30;101373.94;;;6.00;84.43
70009;BME280;59542;37.950;-122.338;2023-02-28T10:17:58;101374.50;;;5.86;84.63
70009;BME280;59542;37.950;-122.338;2023-02-28T10:20:26;101368.44;;;6.01;84.63
70009;BME280;59542;37.950;-122.338;2023-02-28T10:22:58;101376.94;;;6.13;84.11
70009;BME280;59542;37.950;-122.338;2023-02-28T10:25:26;101372.94;;;6.25;83.99
70009;BME280;59542;37.950;-122.338;2023-02-28T10:28:04;101366.94;;;6.15;84.18
70009;BME280;59542;37.950;-122.338;2023-02-28T10:30:30;101369.25;;;6.10;84.50
70009;BME280;59542;37.950;-122.338;2023-02-28T10:32:56;101361.97;;;6.20;84.48
70009;BME280;59542;37.950;-122.338;2023-02-28T10:35:23;101382.41;;;6.20;83.91
70009;BME280;59542;37.950;-122.338;2023-02-28T10:37:51;101358.66;;;6.26;83.55
70009;BME280;59542;37.950;-122.338;2023-02-28T10:43:01;101362.16;;;6.51;82.65
70009;BME280;59542;37.950;-122.338;2023-02-28T10:45:31;101361.16;;;6.60;82.18
70009;BME280;59542;37.950;-122.338;2023-02-28T10:47:58;101353.53;;;6.33;82.80
70009;BME280;59542;37.950;-122.338;2023-02-28T10:52:54;101347.88;;;6.44;82.41
70009;BME280;59542;37.950;-122.338;2023-02-28T10:55:24;101354.38;;;6.50;82.11
70009;BME280;59542;37.950;-122.338;2023-02-28T10:57:51;101337.56;;;6.41;82.35
70009;BME280;59542;37.950;-122.338;2023-02-28T11:00:19;101344.19;;;6.53;82.09
70009;BME280;59542;37.950;-122.338;2023-02-28T11:02:45;101338.22;;;6.59;81.40
70009;BME280;59542;37.950;-122.338;2023-02-28T11:05:30;101331.25;;;6.58;81.09
70009;BME280;59542;37.950;-122.338;2023-02-28T11:08:02;101343.22;;;6.46;81.86
70009;BME280;59542;37.950;-122.338;2023-02-28T11:10:30;101332.59;;;6.30;82.76
70009;BME280;59542;37.950;-122.338;2023-02-28T11:13:00;101335.91;;;6.24;82.61
70009;BME280;59542;37.950;-122.338;2023-02-28T11:15:27;101333.91;;;6.34;82.37
70009;BME280;59542;37.950;-122.338;2023-02-28T11:17:54;101332.91;;;6.35;82.30
70009;BME280;59542;37.950;-122.338;2023-02-28T11:20:21;101331.91;;;6.36;81.77
70009;BME280;59542;37.950;-122.338;2023-02-28T11:22:48;101330.25;;;6.35;82.00
70009;BME280;59542;37.950;-122.338;2023-02-28T11:27:46;101325.59;;;6.21;82.96
70009;BME280;59542;37.950;-122.338;2023-02-28T11:32:57;101320.63;;;6.34;81.92
70009;BME280;59542;37.950;-122.338;2023-02-28T11:37:49;101314.28;;;6.43;82.00
70009;BME280;59542;37.950;-122.338;2023-02-28T11:40:16;101313.47;;;6.26;82.38
70009;BME280;59542;37.950;-122.338;2023-02-28T11:48:31;101295.53;;;6.37;81.94
70009;BME280;59542;37.950;-122.338;2023-02-28T12:09:00;101265.13;;;6.31;81.64
70009;BME280;59542;37.950;-122.338;2023-02-28T12:16:33;101252.81;;;6.38;81.64
70009;BME280;59542;37.950;-122.338;2023-02-28T12:19:21;101256.78;;;6.42;80.78
70009;BME280;59542;37.950;-122.338;2023-02-28T12:24:40;101245.81;;;6.53;81.17
70009;BME280;59542;37.950;-122.338;2023-02-28T12:27:11;101252.97;;;6.53;81.02
70009;BME280;59542;37.950;-122.338;2023-02-28T12:34:41;101235.84;;;6.55;81.01
70009;BME280;59542;37.950;-122.338;2023-02-28T12:37:10;101252.78;;;6.63;80.86
70009;BME280;59542;37.950;-122.338;2023-02-28T12:39:40;101245.16;;;6.51;80.86
70009;BME280;59542;37.950;-122.338;2023-02-28T12:42:13;101232.84;;;6.58;80.65
70009;BME280;59542;37.950;-122.338;2023-02-28T12:44:46;101237.50;;;6.48;80.91
70009;BME280;59542;37.950;-122.338;2023-02-28T12:47:15;101235.19;;;6.37;80.96
70009;BME280;59542;37.950;-122.338;2023-02-28T12:52:10;101233.78;;;6.74;81.11
70009;BME280;59542;37.950;-122.338;2023-02-28T12:57:34;101209.25;;;6.55;81.28
70009;BME280;59542;37.950;-122.338;2023-02-28T13:00:04;101214.38;;;6.57;81.41
70009;BME280;59542;37.950;-122.338;2023-02-28T13:10:24;101209.25;;;6.55;82.14
70009;BME280;59542;37.950;-122.338;2023-02-28T13:13:02;101206.59;;;6.55;81.84
70009;BME280;59542;37.950;-122.338;2023-02-28T13:15:29;101209.91;;;6.49;81.91
70009;BME280;59542;37.950;-122.338;2023-02-28T13:17:56;101206.06;;;6.60;81.55
70009;BME280;59542;37.950;-122.338;2023-02-28T13:20:26;101208.56;;;6.61;81.50
70009;BME280;59542;37.950;-122.338;2023-02-28T13:22:53;101233.00;;;6.49;82.41
70009;BME280;59542;37.950;-122.338;2023-02-28T13:27:52;101235.84;;;6.55;83.76
70009;BME280;59542;37.950;-122.338;2023-02-28T13:38:42;101205.25;;;6.43;86.75
70009;BME280;59542;37.950;-122.338;2023-02-28T13:49:26;101199.81;;;6.37;88.18
70009;BME280;59542;37.950;-122.338;2023-02-28T13:52:21;101198.19;;;6.27;88.85
70009;BME280;59542;37.950;-122.338;2023-02-28T14:00:02;101194.31;;;6.38;89.09
70009;BME280;59542;37.950;-122.338;2023-02-28T14:05:05;101182.69;;;6.39;89.35
70009;BME280;59542;37.950;-122.338;2023-02-28T14:07:53;101175.91;;;6.28;89.72
70009;BME280;59542;37.950;-122.338;2023-02-28T14:13:00;101162.91;;;6.42;89.85
70009;BME280;59542;37.950;-122.338;2023-02-28T14:17:59;101149.97;;;6.39;90.40
70009;BME280;59542;37.950;-122.338;2023-02-28T14:20:29;101135.59;;;6.56;89.28
70009;BME280;59542;37.950;-122.338;2023-02-28T14:23:16;101129.66;;;6.46;89.26
70009;BME280;59542;37.950;-122.338;2023-02-28T14:25:53;101135.44;;;6.49;88.65
70009;BME280;59542;37.950;-122.338;2023-02-28T14:31:04;101134.56;;;6.65;88.18
70009;BME280;59542;37.950;-122.338;2023-02-28T14:36:10;101118.78;;;6.64;88.46
70009;BME280;59542;37.950;-122.338;2023-02-28T14:38:50;101118.53;;;6.42;88.57
70009;BME280;59542;37.950;-122.338;2023-02-28T14:41:22;101104.22;;;6.43;88.95
70009;BME280;59542;37.950;-122.338;2023-02-28T14:43:53;101104.16;;;6.59;88.66
70009;BME280;59542;37.950;-122.338;2023-02-28T14:46:19;101092.56;;;6.52;88.12
70009;BME280;59542;37.950;-122.338;2023-02-28T14:48:49;101091.22;;;6.56;87.96